Time;durP1;ratioP1;P1;durP2;ratioP2;P2;SDS_P1;SDS_P2;PMS_P1;PMS_P2;Temp;Humidity;BMP_temperature;BMP_pressure;BME280_temperature;BME280_humidity;BME280_pressure;Samples;Min_cycle;Max_cycle;Signal;HPM_P1;HPM_P2
2022/04/14 00:02:16;;;;;;;14.10;6.05;;;;;;;;;;6194970;23;20058;-90
2022/04/14 00:05:01;;;;;;;14.27;6.25;;;;;;;;;;6155921;23;20068;-91
2022/04/14 00:07:46;;;;;;;15.15;6.18;;;;;;;;;;6177155;23;20451;-90
2022/04/14 00:10:30;;;;;;;14.10;6.65;;;;;;;;;;6176970;23;20025;-90
2022/04/14 00:13:16;;;;;;;10.38;6.63;;;;;;;;;;6135259;23;20020;-91
2022/04/14 00:16:01;;;;;;;11.85;6.40;;;;;;;;;;6176842;23;20021;-90
2022/04/14 00:18:46;;;;;;;12.38;6.00;;;;;;;;;;6135383;23;20065;-90
2022/04/14 00:21:38;;;;;;;14.43;6.07;;;;;;;;;;6176901;23;20443;-89
2022/04/14 00:24:26;;;;;;;11.68;6.25;;;;;;;;;;6177156;23;20519;-92
2022/04/14 00:27:10;;;;;;;14.13;7.00;;;;;;;;;;6156594;23;20020;-89
2022/04/14 00:29:55;;;;;;;13.30;7.32;;;;;;;;;;6176901;23;20447;-90
2022/04/14 00:32:45;;;;;;;14.20;7.03;;;;;;;;;;6176859;23;20020;-90
2022/04/14 00:35:30;;;;;;;14.70;7.85;;;;;;;;;;6135703;23;20020;-91
2022/04/14 00:38:14;;;;;;;17.23;9.25;;;;;;;;;;6176644;23;20339;-91
2022/04/14 00:40:59;;;;;;;15.57;7.97;;;;;;;;;;6176610;23;20043;-92
2022/04/14 00:43:46;;;;;;;11.63;7.45;;;;;;;;;;6176934;23;20020;-91
2022/04/14 00:46:33;;;;;;;18.45;8.23;;;;;;;;;;6176681;23;20016;-91
2022/04/14 00:49:20;;;;;;;10.98;7.38;;;;;;;;;;6176363;23;20060;-90
2022/04/14 00:52:04;;;;;;;15.07;7.97;;;;;;;;;;6176217;23;20032;-91
2022/04/14 00:54:52;;;;;;;11.35;7.32;;;;;;;;;;6135050;23;20016;-90
2022/04/14 00:57:37;;;;;;;17.05;8.35;;;;;;;;;;6176373;23;20040;-90
2022/04/14 01:00:22;;;;;;;16.20;9.07;;;;;;;;;;6176531;23;20012;-91
2022/04/14 01:03:07;;;;;;;13.85;8.18;;;;;;;;;;6192136;23;20020;-90
2022/04/14 01:05:55;;;;;;;18.75;8.73;;;;;;;;;;6194371;23;20331;-91
2022/04/14 01:08:41;;;;;;;18.88;8.90;;;;;;;;;;6194293;23;20107;-90
2022/04/14 01:11:26;;;;;;;15.23;8.70;;;;;;;;;;6193976;23;20032;-91
2022/04/14 01:14:29;;;;;;;14.52;8.30;;;10.90;99.90;;;;;;6193941;23;20020;-90
2022/04/14 01:17:13;;;;;;;15.23;8.80;;;;;;;;;;6194280;23;20092;-90
2022/04/14 01:20:04;;;;;;;17.38;9.30;;;;;;;;;;6216882;23;20063;-90
2022/04/14 01:22:56;;;;;;;15.57;8.52;;;;;;;;;;6174005;23;20019;-90
2022/04/14 01:25:41;;;;;;;17.08;9.95;;;;;;;;;;6194071;23;20016;-90
2022/04/14 01:28:25;;;;;;;16.10;9.35;;;;;;;;;;6193309;23;20016;-90
2022/04/14 01:31:10;;;;;;;15.38;9.10;;;;;;;;;;6193943;23;20513;-91
2022/04/14 01:33:54;;;;;;;17.85;9.07;;;;;;;;;;6193840;23;20063;-90
2022/04/14 01:36:39;;;;;;;17.10;10.00;;;;;;;;;;6194586;23;20059;-90
2022/04/14 01:39:24;;;;;;;15.63;9.70;;;;;;;;;;6193957;23;20106;-91
2022/04/14 01:42:09;;;;;;;18.48;10.07;;;;;;;;;;6194166;23;20015;-91
2022/04/14 01:44:53;;;;;;;15.32;10.45;;;;;;;;;;6173179;23;20054;-91
2022/04/14 01:47:44;;;;;;;18.80;10.98;;;;;;;;;;6193748;23;20073;-91
2022/04/14 01:50:29;;;;;;;19.95;10.70;;;;;;;;;;6193379;23;20019;-91
2022/04/14 01:53:16;;;;;;;17.48;10.32;;;;;;;;;;6193451;23;20066;-91
2022/04/14 01:56:01;;;;;;;19.92;10.07;;;;;;;;;;6193647;23;20453;-89
2022/04/14 01:58:45;;;;;;;19.02;10.05;;;;;;;;;;6173706;23;20024;-90
2022/04/14 02:01:30;;;;;;;19.42;9.98;;;;;;;;;;6192952;23;20014;-91
2022/04/14 02:04:15;;;;;;;17.30;11.00;;;;;;;;;;6192698;23;20100;-91
2022/04/14 02:06:59;;;;;;;17.85;10.73;;;;;;;;;;6193618;23;20026;-90
2022/04/14 02:09:44;;;;;;;19.95;10.07;;;;;;;;;;6192972;23;20039;-90
2022/04/14 02:12:29;;;;;;;24.00;11.90;;;;;;;;;;6172212;23;20453;-90
2022/04/14 02:15:14;;;;;;;20.67;11.27;;;;;;;;;;6193033;23;20019;-90
2022/04/14 02:17:58;;;;;;;18.25;10.27;;;;;;;;;;6193783;23;20067;-90
2022/04/14 02:20:43;;;;;;;17.27;11.50;;;;;;;;;;6193459;23;20015;-91
2022/04/14 02:23:30;;;;;;;16.23;11.48;;;;;;;;;;6192850;23;20337;-91
2022/04/14 02:26:16;;;;;;;20.10;11.90;;;;;;;;;;6192957;23;20011;-93
2022/04/14 02:29:00;;;;;;;19.45;11.80;;;;;;;;;;6193267;23;20019;-89
2022/04/14 02:31:45;;;;;;;21.70;11.80;;;;;;;;;;6193136;23;20063;-90
2022/04/14 02:34:30;;;;;;;25.67;12.23;;;;;;;;;;6193181;23;20055;-90
2022/04/14 02:37:15;;;;;;;19.60;11.48;;;;;;;;;;6193492;23;20015;-92
2022/04/14 02:39:59;;;;;;;22.20;12.40;;;;;;;;;;6193821;23;20066;-90
2022/04/14 02:42:44;;;;;;;20.13;13.52;;;;;;;;;;6193730;23;20458;-92
2022/04/14 02:45:28;;;;;;;25.10;12.75;;;;;;;;;;6193455;23;20067;-91
2022/04/14 02:48:15;;;;;;;22.25;12.77;;;;;;;;;;6194080;23;20382;-90
2022/04/14 02:51:00;;;;;;;24.08;14.60;;;;;;;;;;6194184;23;20342;-91
2022/04/14 02:53:45;;;;;;;24.48;14.35;;;;;;;;;;6193495;23;20394;-91
2022/04/14 02:56:29;;;;;;;26.13;14.88;;;;;;;;;;6193601;23;20035;-92
2022/04/14 02:59:14;;;;;;;22.27;14.88;;;;;;;;;;6193649;23;20550;-91
2022/04/14 03:01:58;;;;;;;25.02;14.73;;;;;;;;;;6172556;23;20020;-91
2022/04/14 03:04:43;;;;;;;24.30;13.77;;;;;;;;;;6185097;23;20067;-92
2022/04/14 03:07:27;;;;;;;22.17;14.77;;;;;;;;;;6187436;23;20154;-92
2022/04/14 03:10:12;;;;;;;26.40;15.65;;;;;;;;;;6201493;23;20462;-90
2022/04/14 03:12:57;;;;;;;22.92;14.13;;;;;;;;;;6199472;23;20040;-90
2022/04/14 03:15:42;;;;;;;21.48;14.40;;;;;;;;;;6198446;23;20032;-92
2022/04/14 03:18:27;;;;;;;29.88;16.20;;;;;;;;;;6203397;23;20043;-90
2022/04/14 03:21:11;;;;;;;27.67;16.83;;;;;;;;;;6201434;23;20032;-90
2022/04/14 03:23:56;;;;;;;30.00;16.85;;;;;;;;;;6202171;23;20136;-91
2022/04/14 03:26:41;;;;;;;28.20;17.05;;;;;;;;;;6180625;23;20144;-91
2022/04/14 03:29:32;;;;;;;27.58;18.00;;;;;;;;;;6200755;23;20069;-91
2022/04/14 03:32:17;;;;;;;29.08;17.50;;;;;;;;;;6183938;23;20044;-90
2022/04/14 03:35:04;;;;;;;29.65;18.10;;;;;;;;;;6201225;23;20064;-90
2022/04/14 03:37:57;;;;;;;30.55;17.38;;;;;;;;;;6197886;23;20013;-91
2022/04/14 03:40:41;;;;;;;29.50;18.25;;;;;;;;;;6183436;23;20044;-90
2022/04/14 03:43:26;;;;;;;28.90;17.52;;;;;;;;;;6163060;23;20391;-91
2022/04/14 03:46:14;;;;;;;27.02;16.50;;;;;;;;;;6184123;23;20016;-91
2022/04/14 03:49:01;;;;;;;31.83;19.83;;;;;;;;;;6185834;23;20020;-91
2022/04/14 03:51:46;;;;;;;27.08;17.73;;;;;;;;;;6184215;23;20117;-90
2022/04/14 03:54:31;;;;;;;31.83;19.23;;;;;;;;;;6183940;23;20408;-91
2022/04/14 03:57:16;;;;;;;33.63;19.55;;;;;;;;;;6184049;23;20089;-90
2022/04/14 04:00:01;;;;;;;32.58;18.20;;;;;;;;;;6184447;23;20021;-91
2022/04/14 04:02:45;;;;;;;34.58;22.88;;;;;;;;;;6183772;23;20016;-90
2022/04/14 04:05:34;;;;;;;32.70;20.05;;;;;;;;;;6192418;23;20015;-90
2022/04/14 04:08:22;;;;;;;34.97;19.60;;;;;;;;;;6192857;23;20020;-90
2022/04/14 04:11:07;;;;;;;36.13;19.73;;;;;;;;;;6171867;23;20155;-91
2022/04/14 04:13:51;;;;;;;35.47;18.38;;;;;;;;;;6192886;23;20329;-90
2022/04/14 04:16:36;;;;;;;33.45;21.10;;;;;;;;;;6193000;23;20027;-90
2022/04/14 04:19:20;;;;;;;34.88;20.35;;;;;;;;;;6216851;23;20084;-90
2022/04/14 04:22:06;;;;;;;32.50;20.48;;;;;;;;;;6217939;23;19999;-90
2022/04/14 04:24:51;;;;;;;34.67;20.85;;;;;;;;;;6218987;22;20073;-90
2022/04/14 04:27:38;;;;;;;33.53;20.40;;;;;;;;;;6217473;23;20039;-89
2022/04/14 04:30:24;;;;;;;33.47;20.98;;;;;;;;;;6180380;23;20070;-91
2022/04/14 04:33:09;;;;;;;32.92;20.77;;;;;;;;;;6195302;23;20015;-90
2022/04/14 04:35:58;;;;;;;39.20;21.80;;;;;;;;;;6194635;23;20339;-90
2022/04/14 04:38:45;;;;;;;39.88;22.25;;;;;;;;;;6174415;23;20069;-89
2022/04/14 04:41:30;;;;;;;42.50;23.15;;;;;;;;;;6174378;23;20417;-93
2022/04/14 04:44:14;;;;;;;41.67;22.88;;;;;;;;;;6194532;23;20067;-91
2022/04/14 04:46:59;;;;;;;41.72;23.42;;;;;;;;;;6194775;23;20096;-91
2022/04/14 04:49:44;;;;;;;35.97;20.60;;;;;;;;;;6193805;23;20035;-89
2022/04/14 04:52:29;;;;;;;39.58;23.75;;;;;;;;;;6194350;23;20493;-89
2022/04/14 04:55:13;;;;;;;39.72;22.38;;;;;;;;;;6194203;23;20446;-88
2022/04/14 04:57:58;;;;;;;38.78;21.65;;;;;;;;;;6194067;23;20080;-90
2022/04/14 05:00:44;;;;;;;40.13;22.77;;;;;;;;;;6193547;23;20362;-92
2022/04/14 05:03:29;;;;;;;42.80;24.63;;;;;;;;;;6193783;23;20023;-92
2022/04/14 05:06:14;;;;;;;42.20;24.77;;;;;;;;;;6194171;23;20437;-91
2022/04/14 05:08:59;;;;;;;46.42;26.25;;;;;;;;;;6193733;23;20100;-91
2022/04/14 05:11:43;;;;;;;47.97;26.40;;;;;;;;;;6194132;23;20441;-91
2022/04/14 05:14:30;;;;;;;44.20;25.35;;;;;;;;;;6194560;23;20331;-88
2022/04/14 05:17:15;;;;;;;44.72;26.55;;;;;;;;;;6194060;23;20136;-90
2022/04/14 05:19:59;;;;;;;50.90;27.40;;;;;;;;;;6194704;23;20066;-90
2022/04/14 05:22:47;;;;;;;52.80;28.38;;;;;;;;;;6215678;23;20015;-92
2022/04/14 05:25:31;;;;;;;50.83;29.02;;;;;;;;;;6173867;23;20377;-86
2022/04/14 05:28:16;;;;;;;57.42;31.08;;;;;;;;;;6217040;23;20042;-91
2022/04/14 05:31:00;;;;;;;54.42;29.58;;;;;;;;;;6195201;23;20079;-91
2022/04/14 05:33:45;;;;;;;64.10;32.42;;;;;;;;;;6193789;23;20046;-91
2022/04/14 05:36:30;;;;;;;50.65;30.67;;;;;;;;;;6193696;23;20015;-92
2022/04/14 05:39:14;;;;;;;59.95;31.65;;;;;;;;;;6193720;23;20015;-91
2022/04/14 05:42:03;;;;;;;60.97;32.53;;;;;;;;;;6194207;23;20096;-91
2022/04/14 05:44:48;;;;;;;60.20;32.63;;;;;;;;;;6194503;23;20015;-90
2022/04/14 05:47:35;;;;;;;61.25;33.65;;;;;;;;;;6193625;23;20011;-91
2022/04/14 05:52:58;;;;;;;58.33;34.10;;;;;;;;;;5170114;27;20129;-91
2022/04/14 05:55:47;;;;;;;62.60;33.53;;;;;;;;;;5151551;27;20037;-90
2022/04/14 05:58:34;;;;;;;53.25;32.40;;;;;;;;;;5151750;27;20058;-90
2022/04/14 06:01:19;;;;;;;61.17;33.47;;;;;;;;;;5151540;27;20095;-91
2022/04/14 06:04:04;;;;;;;61.20;33.05;;;;;;;;;;5151629;27;20038;-91
2022/04/14 06:06:53;;;;;;;54.08;32.15;;;;;;;;;;5151308;27;20409;-90
2022/04/14 06:09:51;;;;;;;;;;;;;;;;;;;;;
2022/04/14 06:12:36;;;;;;;52.60;31.70;;;;;;;;;;5151272;27;20157;-90
2022/04/14 06:15:21;;;;;;;48.60;31.75;;;;;;;;;;5150341;27;20038;-87
2022/04/14 06:18:06;;;;;;;51.47;32.05;;;;;;;;;;5150169;27;20386;-88
2022/04/14 06:20:53;;;;;;;51.63;30.85;;;;;;;;;;5149849;27;20440;-89
2022/04/14 06:23:38;;;;;;;47.13;31.38;;;;;;;;;;5150154;27;20041;-88
2022/04/14 06:26:23;;;;;;;51.80;30.88;;;;;;;;;;5150124;27;20042;-88
2022/04/14 06:29:10;;;;;;;60.58;31.08;;;;;;;;;;5149603;27;20045;-88
2022/04/14 06:31:55;;;;;;;53.30;30.73;;;;;;;;;;5149490;27;20042;-87
2022/04/14 06:34:39;;;;;;;51.60;29.20;;;;;;;;;;5149884;27;20508;-86
2022/04/14 06:37:24;;;;;;;45.47;27.48;;;;;;;;;;5135482;27;20050;-86
2022/04/14 06:40:09;;;;;;;44.03;27.80;;;;;;;;;;5149807;27;20077;-87
2022/04/14 06:42:53;;;;;;;40.03;25.67;;;;;;;;;;5153785;27;20083;-88
2022/04/14 06:45:38;;;;;;;39.20;26.27;;;;;;;;;;5149778;27;20038;-88
2022/04/14 06:48:25;;;;;;;44.03;25.67;;;;;;;;;;5149673;27;20042;-93
2022/04/14 06:51:26;;;;;;;35.00;23.83;;;;;;;;;;5131061;27;20105;-91
2022/04/14 06:54:42;;;;;;;41.25;25.67;;;;;;;;;;5115013;28;20045;-93
2022/04/14 06:57:34;;;;;;;41.15;24.33;;;;;;;;;;5129432;28;20034;-91
2022/04/14 07:00:25;;;;;;;34.97;21.65;;;;;;;;;;5130311;28;20494;-90
2022/04/14 07:03:12;;;;;;;34.42;21.02;;;;;;;;;;5120694;28;20030;-90
2022/04/14 07:06:00;;;;;;;38.40;22.58;;;;;;;;;;5115153;28;20077;-90
2022/04/14 07:08:45;;;;;;;30.95;19.33;;;;;;;;;;5101918;28;20042;-91
2022/04/14 07:11:30;;;;;;;28.23;19.92;;;;;;;;;;5115815;28;20172;-90
2022/04/14 07:14:16;;;;;;;27.25;18.92;;;;;;;;;;5115166;28;20034;-90
2022/04/14 07:17:04;;;;;;;32.30;19.25;;;;;;;;;;5114990;28;20092;-91
2022/04/14 07:19:51;;;;;;;30.10;17.98;;;;;;;;;;5115655;28;20438;-91
2022/04/14 07:22:43;;;;;;;27.27;19.42;;;12.60;99.90;;;;;;5115451;28;20049;-91
2022/04/14 07:25:30;;;;;;;26.42;17.73;;;;;;;;;;5115588;28;20061;-92
2022/04/14 07:28:15;;;;;;;26.40;17.55;;;;;;;;;;5114951;28;20053;-91
2022/04/14 07:31:06;;;;;;;30.70;18.35;;;;;;;;;;5114704;28;20556;-90
2022/04/14 07:33:51;;;;;;;21.67;15.38;;;;;;;;;;5101319;28;20494;-91
2022/04/14 07:36:44;;;;;;;25.38;16.55;;;;;;;;;;5115298;28;20089;-93
2022/04/14 07:39:28;;;;;;;23.20;15.38;;;;;;;;;;5115363;28;20043;-90
2022/04/14 07:42:16;;;;;;;23.60;16.05;;;;;;;;;;5114889;28;20167;-92
2022/04/14 07:45:01;;;;;;;24.35;17.23;;;;;;;;;;5115172;28;20441;-92
2022/04/14 07:47:46;;;;;;;22.30;15.63;;;;;;;;;;5115136;28;20034;-91
2022/04/14 07:50:33;;;;;;;25.20;15.00;;;;;;;;;;5114953;28;20482;-91
2022/04/14 07:53:18;;;;;;;20.13;15.07;;;;;;;;;;5114094;28;20105;-92
2022/04/14 07:56:03;;;;;;;27.40;17.48;;;;;;;;;;5114178;28;20494;-91
2022/04/14 07:58:50;;;;;;;26.13;16.60;;;;;;;;;;5114743;28;20489;-92
2022/04/14 08:01:36;;;;;;;24.05;16.42;;;;;;;;;;5100361;28;20539;-93
2022/04/14 08:04:51;;;;;;;23.45;17.52;;;14.70;99.90;;;;;;5114267;28;20039;-90
2022/04/14 08:07:36;;;;;;;27.70;16.50;;;;;;;;;;5114044;28;20039;-89
2022/04/14 08:10:23;;;;;;;22.30;15.45;;;;;;;;;;5113804;28;20038;-90
2022/04/14 08:13:09;;;;;;;23.42;16.00;;;;;;;;;;5114721;28;20109;-89
2022/04/14 08:15:53;;;;;;;24.48;15.80;;;;;;;;;;5113411;28;20039;-91
2022/04/14 08:18:39;;;;;;;19.95;15.02;;;;;;;;;;5114317;28;20038;-90
2022/04/14 08:21:24;;;;;;;22.67;14.95;;;;;;;;;;5113768;28;20042;-89
2022/04/14 08:24:09;;;;;;;19.80;14.68;;;;;;;;;;5099235;28;20147;-90
2022/04/14 08:26:59;;;;;;;20.65;14.27;;;;;;;;;;5099630;28;20084;-90
2022/04/14 08:29:44;;;;;;;17.85;14.35;;;;;;;;;;5113708;28;20081;-90
2022/04/14 08:32:29;;;;;;;17.05;13.43;;;;;;;;;;5113697;28;20054;-91
2022/04/14 08:35:18;;;;;;;19.75;14.60;;;15.80;99.90;;;;;;5113464;28;20114;-90
2022/04/14 08:38:06;;;;;;;19.45;14.65;;;;;;;;;;5113436;28;20043;-93
2022/04/14 08:41:00;;;;;;;23.20;15.95;;;16.10;99.90;;;;;;5113399;28;20399;-90
2022/04/14 08:43:58;;;;;;;20.02;15.10;;;16.20;99.90;;;;;;5113525;28;20031;-90
2022/04/14 08:46:43;;;;;;;19.38;14.60;;;;;;;;;;5113600;28;20081;-91
2022/04/14 08:49:31;;;;;;;21.00;15.35;;;;;;;;;;5113033;28;20101;-91
2022/04/14 08:52:16;;;;;;;17.88;15.13;;;;;;;;;;5112254;28;20564;-89
2022/04/14 08:55:08;;;;;;;20.30;15.25;;;;;;;;;;5113086;28;20038;-91
2022/04/14 08:57:54;;;;;;;22.23;16.73;;;16.50;99.90;;;;;;5113339;28;20037;-90
2022/04/14 09:00:49;;;;;;;22.02;16.25;;;;;;;;;;5113491;28;20239;-91
2022/04/14 09:03:34;;;;;;;19.40;14.68;;;;;;;;;;5113483;28;20038;-91
2022/04/14 09:06:19;;;;;;;21.20;15.50;;;;;;;;;;5113052;28;20039;-91
2022/04/14 09:09:04;;;;;;;19.90;14.80;;;;;;;;;;5113241;28;20062;-91
2022/04/14 09:11:48;;;;;;;21.50;15.57;;;;;;;;;;5113140;28;20050;-90
2022/04/14 09:14:37;;;;;;;24.02;14.75;;;;;;;;;;5113380;28;20092;-91
2022/04/14 09:17:21;;;;;;;19.55;14.95;;;;;;;;;;5112840;28;20042;-90
2022/04/14 09:20:34;;;;;;;19.00;14.52;;;16.70;99.90;;;;;;5112926;28;20031;-92
2022/04/14 09:23:20;;;;;;;21.92;14.73;;;;;;;;;;5114327;28;20131;-91
2022/04/14 09:26:14;;;;;;;17.88;14.02;;;;;;;;;;5112620;28;20115;-91
2022/04/14 09:29:10;;;;;;;16.95;13.93;;;17.30;99.90;;;;;;5112980;28;20077;-92
2022/04/14 09:31:55;;;;;;;18.92;15.15;;;;;;;;;;5113091;28;20042;-92
2022/04/14 09:34:52;;;;;;;19.63;13.02;;;17.50;99.90;;;;;;5113285;28;20494;-90
2022/04/14 09:37:39;;;;;;;18.92;12.88;;;;;;;;;;5113294;28;20035;-90
2022/04/14 09:40:29;;;;;;;16.08;12.77;;;;;;;;;;5112914;28;20481;-91
2022/04/14 09:43:13;;;;;;;17.05;13.98;;;;;;;;;;5112811;28;20042;-91
2022/04/14 09:45:58;;;;;;;16.23;12.10;;;;;;;;;;5113022;28;20053;-90
2022/04/14 09:49:02;;;;;;;15.60;11.55;;;;;;;;;;5113739;28;20034;-92
2022/04/14 09:51:50;;;;;;;12.88;10.60;;;18.10;99.90;;;;;;5127941;28;20062;-91
2022/04/14 09:54:38;;;;;;;12.82;9.52;;;;;;;;;;5130522;28;20095;-89
2022/04/14 09:57:22;;;;;;;18.05;10.05;;;;;;;;;;5128985;28;20054;-91
2022/04/14 10:00:07;;;;;;;10.82;8.85;;;;;;;;;;5130113;28;20035;-90
2022/04/14 10:03:07;;;;;;;12.75;8.95;;;;;;;;;;5129871;28;20493;-91
2022/04/14 10:05:53;;;;;;;11.48;8.65;;;;;;;;;;5115028;28;20517;-91
2022/04/14 10:08:51;;;;;;;11.50;8.07;;;;;;;;;;5113330;28;20066;-91
2022/04/14 10:11:37;;;;;;;12.50;8.20;;;;;;;;;;5119453;28;20046;-90
2022/04/14 10:14:29;;;;;;;10.82;8.00;;;;;;;;;;5113016;28;20056;-89
2022/04/14 10:17:17;;;;;;;11.00;7.88;;;;;;;;;;5112868;28;20056;-91
2022/04/14 10:20:03;;;;;;;12.95;8.30;;;;;;;;;;5113118;28;20034;-91
2022/04/14 10:22:48;;;;;;;15.30;9.38;;;;;;;;;;5112924;28;20084;-90
2022/04/14 10:25:36;;;;;;;11.88;8.57;;;;;;;;;;5112286;28;20093;-90
2022/04/14 10:28:24;;;;;;;9.00;5.70;;;;;;;;;;5112060;28;20489;-90
2022/04/14 10:31:12;;;;;;;9.95;5.90;;;;;;;;;;5112654;28;20116;-91
2022/04/14 10:34:04;;;;;;;10.35;5.80;;;;;;;;;;5112477;28;20162;-90
2022/04/14 10:36:49;;;;;;;8.18;5.85;;;;;;;;;;5112329;28;20042;-91
2022/04/14 10:39:41;;;;;;;9.00;5.70;;;;;;;;;;5115692;28;20054;-91
2022/04/14 10:42:31;;;;;;;7.43;4.70;;;;;;;;;;5117006;28;20108;-93
2022/04/14 10:46:18;;;;;;;;;;;;;;;;;;;;;
2022/04/14 10:49:45;;;;;;;;;;;;;;;;;;;;;
2022/04/14 10:52:39;;;;;;;7.28;3.47;;;;;;;;;;5116016;28;20148;-94
2022/04/14 10:55:33;;;;;;;;;;;17.90;99.70;;;;;;5116377;28;20081;-91
2022/04/14 10:58:32;;;;;;;5.72;3.05;;;;;;;;;;5116571;28;19950;-91
2022/04/14 11:01:58;;;;;;;7.03;3.40;;;17.90;99.90;;;;;;5117861;28;20042;-92
2022/04/14 11:04:43;;;;;;;6.97;3.40;;;;;;;;;;5113158;28;20167;-90
2022/04/14 11:07:27;;;;;;;8.20;3.28;;;;;;;;;;5115680;28;20038;-90
2022/04/14 11:10:17;;;;;;;7.05;3.25;;;;;;;;;;5116592;28;20423;-92
2022/04/14 11:13:02;;;;;;;7.28;3.20;;;;;;;;;;5116002;28;20426;-92
2022/04/14 11:15:52;;;;;;;7.72;3.30;;;;;;;;;;5115475;28;20104;-92
2022/04/14 11:19:24;;;;;;;8.88;3.65;;;18.90;99.70;;;;;;5115255;28;20034;-95
2022/04/14 11:22:19;;;;;;;;;;;;;;;;;;;;;
2022/04/14 11:25:10;;;;;;;5.60;3.15;;;;;;;;;;5116442;28;20038;-91
2022/04/14 11:28:33;;;;;;;8.05;3.40;;;19.40;97.80;;;;;;5115597;28;20134;-91
2022/04/14 11:31:22;;;;;;;5.93;3.35;;;;;;;;;;5115218;28;20092;-93
2022/04/14 11:34:09;;;;;;;5.72;3.25;;;;;;;;;;5116812;28;20149;-92
2022/04/14 11:37:31;;;;;;;7.15;3.10;;;19.10;97.70;;;;;;5115345;28;20502;-93
2022/04/14 11:40:26;;;;;;;6.53;2.15;;;18.80;97.20;;;;;;5116285;28;20403;-91
2022/04/14 11:43:15;;;;;;;4.82;1.70;;;;;;;;;;5115486;28;20039;-93
2022/04/14 11:46:00;;;;;;;4.75;1.50;;;18.80;97.40;;;;;;5114902;28;20501;-91
2022/04/14 11:48:56;;;;;;;5.90;1.60;;;;;;;;;;5114507;28;20038;-93
2022/04/14 11:51:47;;;;;;;3.42;1.80;;;;;;;;;;5114322;28;20038;-89
2022/04/14 11:54:33;;;;;;;7.38;2.15;;;;;;;;;;5114940;28;20586;-91
2022/04/14 11:57:43;;;;;;;2.72;1.58;;;;;;;;;;5114748;28;20088;-91
2022/04/14 12:00:33;;;;;;;4.43;1.83;;;;;;;;;;5114714;28;20042;-92
2022/04/14 12:03:38;;;;;;;4.78;2.00;;;18.80;97.20;;;;;;5114569;28;20034;-93
2022/04/14 12:06:23;;;;;;;7.80;2.50;;;;;;;;;;5114652;28;20057;-92
2022/04/14 12:09:17;;;;;;;6.80;2.33;;;;;;;;;;5114061;28;20039;-91
2022/04/14 12:12:18;;;;;;;6.93;2.78;;;;;;;;;;5114045;28;20049;-92
2022/04/14 12:15:07;;;;;;;4.85;2.38;;;19.00;96.70;;;;;;5114178;28;20547;-91
2022/04/14 12:17:56;;;;;;;5.20;2.00;;;;;;;;;;5113987;28;20525;-92
2022/04/14 12:20:58;;;;;;;6.03;1.88;;;;;;;;;;5113872;28;20061;-93
2022/04/14 12:24:02;;;;;;;6.05;2.17;;;;;;;;;;5113669;28;20035;-91
2022/04/14 12:26:47;;;;;;;5.78;1.90;;;;;;;;;;5113195;28;20567;-91
2022/04/14 12:29:31;;;;;;;6.25;3.15;;;;;;;;;;5114326;28;20043;-90
2022/04/14 12:32:43;;;;;;;4.53;2.20;;;;;;;;;;5113775;28;20159;-90
2022/04/14 12:35:35;;;;;;;6.22;2.33;;;;;;;;;;5113805;28;20490;-92
2022/04/14 12:41:36;;;;;;;3.97;1.95;;;18.90;94.90;;;;;;5113924;28;20058;-91
2022/04/14 12:44:34;;;;;;;;;;;;;;;;;;;;;
2022/04/14 12:47:30;;;;;;;5.38;1.92;;;19.00;94.70;;;;;;5114219;28;20161;-92
2022/04/14 12:50:25;;;;;;;6.32;2.50;;;18.90;94.40;;;;;;5113964;28;20088;-92
2022/04/14 12:53:23;;;;;;;6.38;2.10;;;18.90;93.80;;;;;;5098817;28;20100;-94
2022/04/14 12:56:14;;;;;;;3.92;2.03;;;18.70;94.00;;;;;;5113669;28;20042;-90
2022/04/14 12:59:08;;;;;;;6.85;2.78;;;;;;;;;;5113242;28;20042;-93
2022/04/14 13:02:08;;;;;;;5.38;2.63;;;18.40;95.10;;;;;;5112484;28;20034;-92
2022/04/14 13:05:14;;;;;;;6.07;2.60;;;18.30;95.80;;;;;;5112999;28;20055;-91
2022/04/14 13:08:01;;;;;;;4.88;2.10;;;;;;;;;;5113011;28;20104;-91
2022/04/14 13:10:46;;;;;;;2.50;1.27;;;;;;;;;;5112867;28;20039;-91
2022/04/14 13:13:39;;;;;;;3.30;1.40;;;18.20;95.70;;;;;;5113189;28;20104;-92
2022/04/14 13:16:24;;;;;;;5.00;1.83;;;;;;;;;;5113175;28;20038;-89
2022/04/14 13:19:09;;;;;;;4.05;1.70;;;;;;;;;;5116328;28;20520;-96
2022/04/14 13:37:34;;;;;;;7.10;2.50;;;;;;;;;;4993170;28;20148;-92
2022/04/14 13:47:06;;;;;;;6.43;1.80;;;;;;;;;;5504857;22;20041;-94
2022/04/14 13:50:14;;;;;;;3.60;1.80;;;;;;;;;;5091685;28;20043;-94
2022/04/14 13:53:04;;;;;;;5.72;1.80;;;;;;;;;;5093169;28;20039;-95
2022/04/14 13:59:47;;;;;;;6.93;1.80;;;;;;;;;;5059780;28;20044;-92
2022/04/14 14:02:56;;;;;;;6.40;1.95;;;17.30;97.40;;;;;;5092441;28;20035;-92
2022/04/14 14:05:55;;;;;;;3.42;1.70;;;;;;;;;;5092606;28;20034;-91
2022/04/14 14:08:43;;;;;;;7.70;2.75;;;;;;;;;;5092078;28;20035;-90
2022/04/14 14:11:31;;;;;;;5.00;2.05;;;;;;;;;;5091280;28;20089;-90
2022/04/14 14:14:22;;;;;;;4.15;1.33;;;;;;;;;;5095360;28;20059;-92
2022/04/14 14:17:12;;;;;;;3.78;1.98;;;;;;;;;;5095417;28;20839;-89
2022/04/14 14:20:00;;;;;;;6.18;2.00;;;;;;;;;;5095319;28;20039;-90
2022/04/14 14:22:53;;;;;;;6.47;1.90;;;;;;;;;;5096003;28;20075;-90
2022/04/14 14:25:40;;;;;;;5.25;1.67;;;;;;;;;;5096089;28;20043;-90
2022/04/14 14:28:27;;;;;;;4.35;1.90;;;;;;;;;;5095987;28;20463;-91
2022/04/14 14:31:12;;;;;;;6.43;2.00;;;;;;;;;;5095671;28;20035;-91
2022/04/14 14:33:57;;;;;;;5.97;2.33;;;;;;;;;;5095500;28;20035;-90
2022/04/14 14:37:01;;;;;;;6.78;2.10;;;;;;;;;;5095814;28;20080;-92
2022/04/14 14:39:52;;;;;;;4.75;2.30;;;;;;;;;;5095774;28;20035;-93
2022/04/14 14:42:48;;;;;;;8.45;2.55;;;;;;;;;;5095941;28;20399;-90
2022/04/14 14:45:36;;;;;;;9.75;3.20;;;;;;;;;;5095655;28;20042;-90
2022/04/14 14:48:54;;;;;;;13.88;7.57;;;;;;;;;;5095138;28;20075;-91
2022/04/14 14:55:40;;;;;;;;;;;;;;;;;;;;;
2022/04/14 15:02:15;;;;;;;14.90;8.30;;;16.50;99.90;;;;;;5033541;28;20043;-93
2022/04/14 15:05:23;;;;;;;12.45;7.95;;;;;;;;;;5062548;28;20502;-93
2022/04/14 15:08:25;;;;;;;12.65;7.43;;;;;;;;;;5095123;28;20518;-91
2022/04/14 15:18:22;;;;;;;10.77;6.13;;;16.00;99.90;;;;;;5106964;28;20462;-92
2022/04/14 15:24:30;;;;;;;13.57;6.15;;;;;;;;;;5050855;28;20047;-92
2022/04/14 15:27:15;;;;;;;10.23;5.47;;;;;;;;;;5095589;28;20039;-89
2022/04/14 15:30:02;;;;;;;10.23;5.20;;;;;;;;;;5104350;28;20038;-92
2022/04/14 15:32:59;;;;;;;;;;;;;;;;;;;;;
2022/04/14 15:35:47;;;;;;;8.82;5.20;;;;;;;;;;5082036;28;20030;-90
2022/04/14 15:38:39;;;;;;;11.10;5.88;;;;;;;;;;5068510;28;20163;-90
2022/04/14 15:41:24;;;;;;;12.15;4.93;;;;;;;;;;5074833;28;20043;-90
2022/04/14 15:44:10;;;;;;;11.82;5.38;;;;;;;;;;5074331;28;20040;-90
2022/04/14 15:46:57;;;;;;;10.18;5.68;;;;;;;;;;5074635;28;20396;-90
2022/04/14 15:49:44;;;;;;;12.07;4.85;;;;;;;;;;5074673;28;20055;-92
2022/04/14 15:52:29;;;;;;;13.27;4.93;;;;;;;;;;5074807;28;20043;-90
2022/04/14 15:55:17;;;;;;;6.57;4.25;;;;;;;;;;5074040;28;20494;-91
2022/04/14 15:58:02;;;;;;;8.25;4.28;;;;;;;;;;5060551;28;20044;-92
2022/04/14 16:01:09;;;;;;;9.95;4.40;;;15.70;99.90;;;;;;5073838;28;20039;-93
2022/04/14 16:03:54;;;;;;;9.82;4.03;;;;;;;;;;5074013;28;20040;-90
2022/04/14 16:06:46;;;;;;;10.45;4.03;;;;;;;;;;5073873;28;20039;-89
2022/04/14 16:12:02;;;;;;;5.45;3.55;;;;;;;;;;5073595;28;20078;-90
2022/04/14 16:12:38;;;;;;;7.32;3.00;;;;;;;;;;5074335;28;20541;-92
2022/04/14 16:15:26;;;;;;;5.57;2.38;;;;;;;;;;5073240;28;20082;-90
2022/04/14 16:18:11;;;;;;;9.10;2.85;;;;;;;;;;5073119;28;20842;-90
2022/04/14 16:20:58;;;;;;;5.22;2.50;;;;;;;;;;5073083;28;20119;-91
2022/04/14 16:23:44;;;;;;;5.55;2.60;;;;;;;;;;5073568;28;20159;-91
2022/04/14 16:26:33;;;;;;;8.02;3.40;;;;;;;;;;5073072;28;20036;-90
2022/04/14 16:29:22;;;;;;;7.15;2.70;;;;;;;;;;5059186;28;20105;-90
2022/04/14 16:32:09;;;;;;;9.75;2.80;;;;;;;;;;5072927;28;20035;-92
2022/04/14 16:34:54;;;;;;;6.07;3.00;;;;;;;;;;5072645;28;20047;-90
2022/04/14 16:37:42;;;;;;;7.72;2.75;;;;;;;;;;5093508;28;20085;-89
2022/04/14 16:40:30;;;;;;;6.78;3.03;;;;;;;;;;5075166;28;20108;-93
2022/04/14 16:43:21;;;;;;;6.65;3.33;;;;;;;;;;5071887;28;20032;-90
2022/04/14 16:46:08;;;;;;;10.02;4.90;;;;;;;;;;5080070;28;20536;-90
2022/04/14 16:48:53;;;;;;;8.50;4.63;;;;;;;;;;5079041;28;20063;-90
2022/04/14 16:51:49;;;;;;;9.10;4.28;;;;;;;;;;5092605;28;20113;-91
2022/04/14 16:54:36;;;;;;;8.27;4.30;;;;;;;;;;5092771;28;20085;-92
2022/04/14 16:57:23;;;;;;;6.80;4.38;;;;;;;;;;5075176;28;20090;-90
2022/04/14 17:00:32;;;;;;;8.38;4.07;;;;;;;;;;5076395;28;20170;-91
2022/04/14 17:03:32;;;;;;;7.82;4.78;;;;;;;;;;5094409;28;20031;-93
2022/04/14 17:06:17;;;;;;;8.50;4.75;;;;;;;;;;5075973;28;20077;-94
2022/04/14 17:09:12;;;;;;;11.90;5.28;;;;;;;;;;5086096;28;20030;-93
2022/04/14 17:11:58;;;;;;;11.88;5.28;;;;;;;;;;5087840;28;20498;-94
2022/04/14 17:14:42;;;;;;;8.57;5.05;;;;;;;;;;5093219;28;20087;-92
2022/04/14 17:17:38;;;;;;;8.60;5.25;;;;;;;;;;5086434;28;20031;-92
2022/04/14 17:20:23;;;;;;;10.60;5.60;;;;;;;;;;5087981;28;20035;-89
2022/04/14 17:26:40;;;;;;;13.30;6.53;;;;;;;;;;5092402;28;20676;-91